Time;durP1;ratioP1;P1;durP2;ratioP2;P2;SDS_P1;SDS_P2;PMS_P1;PMS_P2;Temp;Humidity;BMP_temperature;BMP_pressure;BME280_temperature;BME280_humidity;BME280_pressure;Samples;Min_cycle;Max_cycle;Signal;HPM_P1;HPM_P2
2023/03/18 00:02:07;;;;;;;11.25;4.25;;;1.90;92.40;;;;;;4991127;28;20034;-74
2023/03/18 00:04:33;;;;;;;;;;;1.90;92.80;;;;;;4991142;28;20034;-74
2023/03/18 00:06:58;;;;;;;9.43;3.95;;;1.80;93.80;;;;;;4989275;28;19913;-73
2023/03/18 00:09:24;;;;;;;;;;;1.80;93.80;;;;;;4991358;28;20022;-75
2023/03/18 00:11:50;;;;;;;13.30;4.40;;;1.80;94.40;;;;;;4990918;28;19914;-75
2023/03/18 00:14:18;;;;;;;11.98;3.50;;;1.70;94.70;;;;;;4989627;28;20034;-75
2023/03/18 00:16:44;;;;;;;8.85;2.90;;;1.70;94.30;;;;;;4990923;28;20506;-74
2023/03/18 00:19:10;;;;;;;12.73;4.13;;;1.70;93.80;;;;;;4989338;28;20069;-74
2023/03/18 00:21:35;;;;;;;;;;;1.70;93.40;;;;;;4989926;28;20026;-74
2023/03/18 00:24:01;;;;;;;6.45;1.95;;;1.70;92.40;;;;;;4989210;28;19916;-73
2023/03/18 00:26:27;;;;;;;;;;;1.70;90.00;;;;;;4990029;28;20420;-74
2023/03/18 00:28:55;;;;;;;8.93;3.22;;;1.80;88.30;;;;;;4990617;28;19909;-78
2023/03/18 00:31:21;;;;;;;13.50;3.33;;;1.80;87.60;;;;;;4995713;28;20057;-75
2023/03/18 00:33:49;;;;;;;;;;;1.80;90.30;;;;;;4992941;28;20073;-75
2023/03/18 00:36:17;;;;;;;11.00;3.47;;;1.80;90.40;;;;;;4989897;28;19956;-75
2023/03/18 00:38:44;;;;;;;11.57;3.22;;;1.80;90.10;;;;;;4991217;28;20033;-74
2023/03/18 00:41:14;;;;;;;11.10;3.05;;;1.70;90.70;;;;;;4992657;28;20034;-74
2023/03/18 00:43:52;;;;;;;9.27;2.85;;;1.70;90.70;;;;;;4991570;28;20378;-74
2023/03/18 00:46:23;;;;;;;5.50;2.58;;;1.80;91.30;;;;;;4989131;28;20733;-74
2023/03/18 00:48:49;;;;;;;5.68;1.70;;;1.80;91.10;;;;;;4989075;28;20471;-75
2023/03/18 00:51:16;;;;;;;8.88;2.00;;;1.80;91.20;;;;;;4988774;28;20026;-75
2023/03/18 00:53:44;;;;;;;6.70;1.92;;;1.70;91.50;;;;;;4990218;28;20058;-75
2023/03/18 00:56:11;;;;;;;6.30;2.15;;;1.80;91.80;;;;;;4990333;28;20034;-73
2023/03/18 00:58:37;;;;;;;9.45;2.85;;;1.70;91.60;;;;;;4988970;28;20058;-74
2023/03/18 01:01:06;;;;;;;;;;;1.60;92.60;;;;;;4990414;28;20030;-75
2023/03/18 01:03:32;;;;;;;8.63;2.67;;;1.60;92.80;;;;;;4988799;28;19920;-75
2023/03/18 01:06:03;;;;;;;8.35;2.92;;;1.60;93.00;;;;;;4989976;28;20521;-75
2023/03/18 01:08:29;;;;;;;9.27;3.30;;;1.60;93.10;;;;;;4988702;28;20076;-74
2023/03/18 01:10:56;;;;;;;8.75;3.55;;;1.60;93.30;;;;;;4989816;28;20066;-74
2023/03/18 01:13:24;;;;;;;7.97;2.78;;;1.50;93.80;;;;;;4989837;28;20117;-75
2023/03/18 01:15:50;;;;;;;9.13;1.98;;;1.50;93.30;;;;;;4989938;28;20817;-74
2023/03/18 01:18:16;;;;;;;;;;;1.60;92.80;;;;;;4990801;28;20034;-74
2023/03/18 01:20:43;;;;;;;6.80;2.30;;;1.60;92.80;;;;;;4989181;28;20044;-75
2023/03/18 01:23:10;;;;;;;4.43;1.70;;;1.60;92.30;;;;;;4991958;28;20440;-75
2023/03/18 01:25:36;;;;;;;8.00;2.35;;;1.60;92.10;;;;;;4992150;28;20029;-75
2023/03/18 01:28:02;;;;;;;7.03;2.60;;;1.60;90.40;;;;;;4990756;28;20109;-75
2023/03/18 01:30:29;;;;;;;7.88;2.28;;;1.80;89.00;;;;;;4991077;28;20026;-75
2023/03/18 01:32:55;;;;;;;9.00;2.40;;;1.80;88.70;;;;;;4989777;28;20128;-75
2023/03/18 01:35:22;;;;;;;9.63;2.20;;;1.80;88.40;;;;;;4989571;28;20026;-74
2023/03/18 01:37:48;;;;;;;7.13;2.13;;;1.80;90.30;;;;;;4989657;28;20045;-74
2023/03/18 01:40:14;;;;;;;;;;;1.70;90.70;;;;;;4989067;28;20026;-74
2023/03/18 01:42:41;;;;;;;8.85;2.38;;;1.70;91.00;;;;;;4989767;28;19967;-74
2023/03/18 01:45:15;;;;;;;6.95;2.10;;;1.70;91.60;;;;;;4987836;28;20035;-74
2023/03/18 01:47:42;;;;;;;8.10;1.80;;;1.60;92.30;;;;;;4989095;28;20040;-74
2023/03/18 01:50:08;;;;;;;8.10;1.70;;;1.50;93.00;;;;;;4987959;28;20030;-74
2023/03/18 01:52:43;;;;;;;9.32;2.70;;;1.50;93.20;;;;;;4989066;28;20073;-72
2023/03/18 01:55:16;;;;;;;8.68;2.50;;;1.50;93.50;;;;;;4987757;28;20407;-74
2023/03/18 01:57:44;;;;;;;10.18;2.58;;;1.50;94.20;;;;;;4989212;28;20058;-75
2023/03/18 02:00:15;;;;;;;10.57;2.35;;;1.50;93.70;;;;;;4987474;28;20026;-73
2023/03/18 02:02:46;;;;;;;17.20;2.67;;;1.50;93.70;;;;;;4989199;28;20125;-73
2023/03/18 02:05:16;;;;;;;7.00;2.35;;;1.50;92.30;;;;;;4987563;28;20633;-75
2023/03/18 02:07:43;;;;;;;6.57;1.63;;;1.50;91.40;;;;;;4987714;28;20514;-75
2023/03/18 02:10:15;;;;;;;7.97;1.95;;;1.50;91.20;;;;;;4988994;28;20034;-75
2023/03/18 02:12:44;;;;;;;6.60;2.13;;;1.50;90.10;;;;;;4987734;28;20034;-75
2023/03/18 02:15:21;;;;;;;5.70;1.70;;;1.70;86.90;;;;;;4988094;28;20041;-74
2023/03/18 02:17:53;;;;;;;5.10;2.25;;;1.90;85.00;;;;;;4990259;28;20248;-76
2023/03/18 02:20:49;;;;;;;9.50;2.45;;;2.00;82.80;;;;;;4989759;28;20053;-75
2023/03/18 02:23:40;;;;;;;10.13;2.10;;;2.10;81.90;;;;;;4987820;28;20038;-75
2023/03/18 02:26:37;;;;;;;5.07;1.63;;;2.20;79.60;;;;;;4987604;28;20026;-75
2023/03/18 02:30:50;;;;;;;10.63;2.73;;;2.50;77.80;;;;;;5065333;28;20477;-72
2023/03/18 02:33:18;;;;;;;10.30;2.80;;;2.50;77.70;;;;;;5065440;28;20400;-73
2023/03/18 02:35:46;;;;;;;10.90;2.13;;;2.60;76.60;;;;;;5065651;28;20032;-75
2023/03/18 02:38:11;;;;;;;6.97;1.88;;;2.70;75.50;;;;;;5065504;28;20312;-73
2023/03/18 02:40:38;;;;;;;;;;;2.80;75.80;;;;;;5065646;28;20488;-74
2023/03/18 02:43:32;;;;;;;5.78;2.35;;;2.90;75.60;;;;;;5065092;28;20399;-73
2023/03/18 02:46:29;;;;;;;5.82;2.05;;;2.90;75.00;;;;;;5062263;28;20037;-73
2023/03/18 02:48:57;;;;;;;6.78;2.20;;;2.90;75.20;;;;;;5063769;28;20035;-74
2023/03/18 02:51:25;;;;;;;8.10;2.55;;;2.90;75.50;;;;;;5063660;28;20032;-73
2023/03/18 02:53:54;;;;;;;8.68;2.20;;;3.00;75.50;;;;;;5065298;28;20033;-74
2023/03/18 02:56:20;;;;;;;8.95;2.47;;;3.00;75.80;;;;;;5064998;28;20036;-73
2023/03/18 02:58:45;;;;;;;;;;;3.00;76.20;;;;;;5065565;28;20036;-74
2023/03/18 03:01:12;;;;;;;9.85;2.67;;;3.00;76.40;;;;;;5063723;28;19915;-73
2023/03/18 03:03:38;;;;;;;6.57;2.78;;;3.10;76.60;;;;;;5063862;28;20029;-73
2023/03/18 03:06:05;;;;;;;11.18;3.08;;;3.10;77.30;;;;;;5065049;28;20027;-73
2023/03/18 03:08:31;;;;;;;7.95;2.80;;;3.10;77.50;;;;;;5064611;28;20051;-72
2023/03/18 03:10:56;;;;;;;;;;;3.20;77.20;;;;;;5064003;28;20040;-74
2023/03/18 03:13:23;;;;;;;6.85;2.13;;;3.30;76.70;;;;;;5064652;28;19908;-73
2023/03/18 03:15:50;;;;;;;5.63;1.67;;;3.20;77.00;;;;;;5063329;28;20031;-73
2023/03/18 03:18:16;;;;;;;7.68;2.03;;;3.10;78.50;;;;;;5064576;28;20025;-74
2023/03/18 03:20:42;;;;;;;;;;;3.20;78.50;;;;;;5063912;28;20028;-72
2023/03/18 03:23:11;;;;;;;11.82;1.75;;;3.20;78.40;;;;;;5064770;28;19909;-77
2023/03/18 03:25:38;;;;;;;7.10;1.63;;;3.30;78.40;;;;;;5064655;28;20060;-74
2023/03/18 03:28:07;;;;;;;7.97;2.10;;;3.40;78.00;;;;;;5064578;28;20172;-73
2023/03/18 03:30:33;;;;;;;10.52;1.88;;;3.50;77.40;;;;;;5062815;28;20056;-74
2023/03/18 03:33:00;;;;;;;7.57;2.10;;;3.60;76.80;;;;;;5064263;28;20021;-73
2023/03/18 03:35:27;;;;;;;14.65;3.03;;;3.60;76.50;;;;;;5064287;28;20025;-74
2023/03/18 03:37:52;;;;;;;6.25;1.92;;;3.70;75.40;;;;;;5064212;28;20044;-73
2023/03/18 03:40:19;;;;;;;;;;;3.80;75.00;;;;;;5060961;28;20485;-74
2023/03/18 03:42:45;;;;;;;9.95;2.63;;;3.80;74.50;;;;;;5049827;28;19984;-74
2023/03/18 03:45:12;;;;;;;9.82;2.28;;;3.80;74.30;;;;;;5049738;28;20108;-73
2023/03/18 03:47:39;;;;;;;8.60;3.40;;;3.90;73.70;;;;;;5050982;28;20108;-73
2023/03/18 03:50:06;;;;;;;16.25;7.63;;;3.90;73.10;;;;;;5050777;28;20127;-74
2023/03/18 03:52:32;;;;;;;10.13;4.38;;;4.00;72.50;;;;;;5049628;28;20029;-73
2023/03/18 03:54:59;;;;;;;;;;;4.00;72.00;;;;;;5051478;28;20060;-73
2023/03/18 03:57:26;;;;;;;13.88;4.80;;;4.10;70.80;;;;;;5050597;28;19909;-74
2023/03/18 03:59:52;;;;;;;12.65;4.85;;;4.00;71.20;;;;;;5050722;28;20531;-74
2023/03/18 04:02:18;;;;;;;7.95;3.10;;;4.00;69.90;;;;;;5049237;28;20401;-74
2023/03/18 04:04:45;;;;;;;10.52;2.92;;;4.00;70.00;;;;;;5049243;28;20094;-74
2023/03/18 04:07:11;;;;;;;10.57;3.00;;;4.00;68.90;;;;;;5049587;28;20075;-73
2023/03/18 04:09:38;;;;;;;7.43;2.03;;;4.00;68.40;;;;;;5050352;28;20036;-74
2023/03/18 04:12:04;;;;;;;;;;;3.90;67.90;;;;;;5050916;28;20116;-74
2023/03/18 04:14:30;;;;;;;4.75;1.95;;;4.00;67.50;;;;;;5050597;28;20543;-73
2023/03/18 04:16:58;;;;;;;9.77;2.30;;;4.10;66.80;;;;;;5048781;28;20091;-74
2023/03/18 04:19:26;;;;;;;6.90;2.10;;;4.00;66.60;;;;;;5049144;28;20044;-72
2023/03/18 04:21:52;;;;;;;6.63;1.88;;;4.10;66.10;;;;;;5050377;28;20370;-75
2023/03/18 04:24:19;;;;;;;8.05;2.28;;;4.10;65.70;;;;;;5049129;28;20036;-74
2023/03/18 04:26:45;;;;;;;8.85;2.80;;;4.20;65.10;;;;;;5050271;28;20029;-74
2023/03/18 04:29:10;;;;;;;;;;;4.20;65.20;;;;;;5050245;28;20132;-73
2023/03/18 04:31:36;;;;;;;8.93;2.17;;;4.10;65.20;;;;;;5049044;28;20007;-72
2023/03/18 04:34:02;;;;;;;8.63;2.22;;;4.10;65.10;;;;;;5049347;28;20102;-74
2023/03/18 04:36:28;;;;;;;8.63;2.63;;;4.10;64.90;;;;;;5048793;28;20082;-74
2023/03/18 04:38:54;;;;;;;;;;;4.10;64.90;;;;;;5050616;28;20033;-74
2023/03/18 04:41:19;;;;;;;17.17;3.38;;;4.00;65.20;;;;;;5049973;28;19905;-75
2023/03/18 04:43:45;;;;;;;;;;;4.00;64.50;;;;;;5050441;28;20035;-74
2023/03/18 04:46:11;;;;;;;9.38;5.03;;;4.10;64.20;;;;;;5049908;28;19959;-75
2023/03/18 04:48:37;;;;;;;11.32;5.45;;;4.10;64.00;;;;;;5049793;28;20514;-71
2023/03/18 04:51:04;;;;;;;14.07;5.65;;;4.00;64.10;;;;;;5048211;28;20060;-73
2023/03/18 04:53:30;;;;;;;10.50;4.13;;;4.00;64.70;;;;;;5047590;28;20031;-72
2023/03/18 04:55:55;;;;;;;;;;;3.90;64.50;;;;;;5048946;28;20124;-74
2023/03/18 04:58:22;;;;;;;7.32;3.67;;;4.00;63.90;;;;;;5049800;28;19905;-71
2023/03/18 05:00:48;;;;;;;8.27;2.30;;;3.90;63.70;;;;;;5049461;28;20029;-75
2023/03/18 05:03:14;;;;;;;6.50;1.80;;;3.90;63.70;;;;;;5049465;28;20017;-74
2023/03/18 05:05:40;;;;;;;;;;;3.90;63.60;;;;;;5048701;28;20122;-75
2023/03/18 05:08:06;;;;;;;8.52;2.08;;;3.90;63.50;;;;;;5048205;28;20659;-72
2023/03/18 05:10:32;;;;;;;7.72;1.70;;;3.90;63.60;;;;;;5049358;28;20033;-75
2023/03/18 05:12:58;;;;;;;;;;;3.90;63.20;;;;;;5049900;28;20025;-75
2023/03/18 05:15:23;;;;;;;9.77;1.85;;;3.90;63.40;;;;;;5047893;28;19909;-72
2023/03/18 05:17:49;;;;;;;;;;;3.90;63.10;;;;;;5049853;28;20032;-74
2023/03/18 05:20:15;;;;;;;9.20;2.17;;;3.90;63.40;;;;;;5049169;28;20380;-71
2023/03/18 05:22:40;;;;;;;;;;;3.80;65.20;;;;;;5049794;28;20481;-73
2023/03/18 05:25:07;;;;;;;8.55;2.65;;;3.70;65.90;;;;;;5047787;28;19928;-72
2023/03/18 05:27:33;;;;;;;7.28;2.15;;;3.60;67.70;;;;;;5047867;28;20416;-74
2023/03/18 05:29:58;;;;;;;;;;;3.50;68.80;;;;;;5049188;28;20540;-74
2023/03/18 05:32:25;;;;;;;8.13;1.85;;;3.50;68.70;;;;;;5049209;28;19908;-74
2023/03/18 05:34:51;;;;;;;7.22;2.42;;;3.50;69.40;;;;;;5047629;28;20025;-74
2023/03/18 05:37:17;;;;;;;14.88;2.53;;;3.40;71.80;;;;;;5048983;28;20028;-72
2023/03/18 05:39:44;;;;;;;;;;;3.40;72.70;;;;;;5049422;28;20559;-73
2023/03/18 05:42:10;;;;;;;7.57;1.95;;;3.30;73.70;;;;;;5047396;28;19905;-72
2023/03/18 05:44:35;;;;;;;;;;;3.30;74.60;;;;;;5048001;28;20033;-74
2023/03/18 05:47:01;;;;;;;9.88;2.85;;;3.50;73.30;;;;;;5048601;28;19908;-72
2023/03/18 05:49:27;;;;;;;;;;;3.60;75.50;;;;;;5049058;28;20024;-73
2023/03/18 05:51:53;;;;;;;6.80;2.28;;;3.70;75.30;;;;;;5047420;28;20069;-73
2023/03/18 05:54:18;;;;;;;;;;;3.90;76.10;;;;;;5048974;28;20044;-74
2023/03/18 05:56:45;;;;;;;5.18;2.15;;;4.20;71.80;;;;;;5047325;28;20394;-74
2023/03/18 05:59:11;;;;;;;;;;;4.70;68.20;;;;;;5047749;28;20037;-75
2023/03/18 06:01:37;;;;;;;7.88;2.92;;;5.40;63.70;;;;;;5047028;28;20324;-73
2023/03/18 06:04:05;;;;;;;;;;;6.10;61.40;;;;;;5048785;28;20554;-74
2023/03/18 06:06:31;;;;;;;7.10;1.95;;;6.60;59.20;;;;;;5048592;28;19913;-74
2023/03/18 06:08:57;;;;;;;7.72;2.78;;;7.20;56.90;;;;;;5047069;28;20100;-74
2023/03/18 06:11:23;;;;;;;;;;;7.60;54.30;;;;;;5049029;28;20052;-75
2023/03/18 06:13:49;;;;;;;8.75;2.10;;;7.80;53.60;;;;;;5048392;28;19951;-73
2023/03/18 06:16:15;;;;;;;10.98;2.17;;;8.00;53.30;;;;;;5047166;28;20028;-73
2023/03/18 06:18:41;;;;;;;;;;;8.10;53.40;;;;;;5049062;28;20396;-73
2023/03/18 06:21:08;;;;;;;7.85;2.80;;;8.40;52.10;;;;;;5046930;28;20393;-75
2023/03/18 06:23:35;;;;;;;6.50;2.38;;;8.90;50.60;;;;;;5046791;28;20036;-74
2023/03/18 06:26:01;;;;;;;10.10;3.08;;;9.10;49.60;;;;;;5048300;28;20063;-74
2023/03/18 06:28:28;;;;;;;8.18;2.65;;;9.20;48.90;;;;;;5047928;28;20025;-73
2023/03/18 06:30:57;;;;;;;10.13;2.97;;;9.10;49.70;;;;;;5046933;28;20474;-74
2023/03/18 06:33:25;;;;;;;10.25;2.30;;;9.10;49.40;;;;;;5046920;28;20036;-74
2023/03/18 06:35:52;;;;;;;6.93;2.38;;;9.40;48.20;;;;;;5048424;28;20029;-73
2023/03/18 06:38:18;;;;;;;7.38;2.83;;;9.80;47.30;;;;;;5047055;28;20456;-75
2023/03/18 06:40:44;;;;;;;;;;;10.00;47.20;;;;;;5047329;28;20504;-74
2023/03/18 06:43:10;;;;;;;9.57;2.75;;;10.50;46.10;;;;;;5046966;28;20467;-72
2023/03/18 06:45:36;;;;;;;;;;;10.70;45.60;;;;;;5048488;28;20032;-74
2023/03/18 06:48:02;;;;;;;10.55;3.45;;;11.00;45.10;;;;;;5046834;28;19909;-74
2023/03/18 06:50:29;;;;;;;8.13;3.45;;;11.40;44.60;;;;;;5047816;28;20071;-74
2023/03/18 06:52:55;;;;;;;5.63;2.72;;;11.60;43.60;;;;;;5046613;28;20493;-74
2023/03/18 06:55:21;;;;;;;6.15;2.72;;;11.60;43.80;;;;;;5047922;28;20020;-74
2023/03/18 06:57:47;;;;;;;11.30;4.97;;;11.80;42.70;;;;;;5046486;28;20025;-73
2023/03/18 07:00:13;;;;;;;;;;;11.80;42.60;;;;;;5048357;28;20095;-74
2023/03/18 07:02:39;;;;;;;6.83;3.13;;;11.90;42.60;;;;;;5048142;28;19948;-74
2023/03/18 07:05:06;;;;;;;;;;;12.10;42.60;;;;;;5046831;28;20052;-74
2023/03/18 07:07:32;;;;;;;10.90;3.08;;;12.10;42.50;;;;;;5046693;28;19909;-74
2023/03/18 07:09:58;;;;;;;;;;;12.40;41.50;;;;;;5048204;28;20049;-74
2023/03/18 07:12:25;;;;;;;9.63;2.85;;;12.60;40.80;;;;;;5047796;28;19912;-74
2023/03/18 07:14:52;;;;;;;6.68;2.90;;;12.50;41.40;;;;;;5047733;28;20060;-75
2023/03/18 07:17:18;;;;;;;7.03;3.08;;;12.60;41.20;;;;;;5049742;28;20119;-75
2023/03/18 07:19:44;;;;;;;11.13;3.83;;;12.90;40.90;;;;;;5051535;28;20040;-75
2023/03/18 07:22:10;;;;;;;;;;;12.90;40.20;;;;;;5050672;28;20133;-73
2023/03/18 07:24:36;;;;;;;9.85;3.33;;;12.80;40.50;;;;;;5051595;28;19920;-75
2023/03/18 07:27:03;;;;;;;;;;;13.20;39.80;;;;;;5051503;28;20029;-75
2023/03/18 07:29:29;;;;;;;;;;;13.20;39.00;;;;;;5051498;28;19925;-75
2023/03/18 07:31:54;;;;;;;8.80;2.97;;;12.90;39.40;;;;;;5051135;28;19935;-74
2023/03/18 07:34:20;;;;;;;;;;;13.00;39.60;;;;;;5051669;28;20398;-75
2023/03/18 07:36:46;;;;;;;7.18;2.92;;;13.30;39.00;;;;;;5049865;28;20459;-75
2023/03/18 07:39:12;;;;;;;;;;;13.80;37.90;;;;;;5051492;28;20028;-75
2023/03/18 07:41:37;;;;;;;7.53;2.83;;;13.70;37.90;;;;;;5051236;28;19909;-75
2023/03/18 07:44:03;;;;;;;;;;;13.90;37.70;;;;;;5050633;28;20028;-74
2023/03/18 07:46:29;;;;;;;8.93;2.83;;;14.10;37.50;;;;;;5051066;28;19909;-75
2023/03/18 07:48:55;;;;;;;6.88;2.97;;;14.40;37.10;;;;;;5051031;28;20048;-74
2023/03/18 07:51:21;;;;;;;8.45;3.20;;;14.90;36.10;;;;;;5050983;28;20385;-75
2023/03/18 07:53:46;;;;;;;;;;;15.20;34.30;;;;;;5050088;28;20036;-75
2023/03/18 07:56:12;;;;;;;7.63;2.53;;;15.70;33.50;;;;;;5050694;28;20380;-76
2023/03/18 07:58:38;;;;;;;13.85;2.90;;;15.70;33.30;;;;;;5050817;28;20029;-75
2023/03/18 08:01:04;;;;;;;7.05;3.55;;;15.90;32.80;;;;;;5050495;28;20078;-74
2023/03/18 08:03:30;;;;;;;6.65;2.25;;;15.90;32.90;;;;;;5049399;28;20029;-75
2023/03/18 08:05:56;;;;;;;5.97;2.60;;;15.80;32.70;;;;;;5049350;28;20039;-75
2023/03/18 08:08:23;;;;;;;7.82;2.72;;;15.90;32.40;;;;;;5050557;28;20025;-74
2023/03/18 08:10:50;;;;;;;7.88;2.72;;;15.80;32.00;;;;;;5048957;28;20424;-74
2023/03/18 08:13:16;;;;;;;8.70;3.17;;;15.60;32.20;;;;;;5050433;28;20578;-75
2023/03/18 08:15:41;;;;;;;9.13;3.17;;;15.50;33.60;;;;;;5049233;28;20029;-75
2023/03/18 08:18:07;;;;;;;10.32;3.80;;;15.60;33.50;;;;;;5050609;28;20489;-75
2023/03/18 08:20:33;;;;;;;9.77;3.00;;;15.80;32.90;;;;;;5050449;28;20056;-74
2023/03/18 08:22:59;;;;;;;11.32;4.88;;;15.90;32.40;;;;;;5050527;28;20515;-73
2023/03/18 08:25:25;;;;;;;13.23;6.13;;;15.70;33.50;;;;;;5048915;28;20033;-75
2023/03/18 08:27:51;;;;;;;9.40;3.20;;;15.50;33.00;;;;;;5050215;28;20103;-75
2023/03/18 08:30:17;;;;;;;7.07;3.40;;;15.80;33.40;;;;;;5050176;28;20045;-74
2023/03/18 08:32:43;;;;;;;5.78;3.13;;;16.00;33.30;;;;;;5050326;28;20029;-74
2023/03/18 08:35:11;;;;;;;12.80;3.28;;;16.20;32.60;;;;;;5048760;28;20032;-75
2023/03/18 08:37:37;;;;;;;7.55;3.05;;;16.20;33.50;;;;;;5050155;28;20100;-75
2023/03/18 08:40:04;;;;;;;5.70;2.40;;;16.40;32.30;;;;;;5050066;28;20158;-75
2023/03/18 08:42:29;;;;;;;10.77;2.88;;;16.90;31.30;;;;;;5049035;28;20033;-75
2023/03/18 08:44:55;;;;;;;11.30;5.45;;;16.70;31.90;;;;;;5048654;28;20584;-75
2023/03/18 08:47:23;;;;;;;22.33;11.65;;;16.00;32.50;;;;;;5049773;28;20033;-73
2023/03/18 08:49:49;;;;;;;11.90;5.88;;;15.80;33.70;;;;;;5049678;28;20071;-74
2023/03/18 08:52:15;;;;;;;7.50;2.75;;;16.20;32.80;;;;;;5049825;28;20032;-74
2023/03/18 08:54:41;;;;;;;10.90;5.63;;;16.50;32.40;;;;;;5049589;28;20021;-75
2023/03/18 08:57:07;;;;;;;6.97;2.70;;;16.70;32.60;;;;;;5049487;28;20443;-76
2023/03/18 08:59:32;;;;;;;10.95;5.38;;;16.60;32.30;;;;;;5049624;28;20142;-75
2023/03/18 09:01:58;;;;;;;7.03;3.00;;;16.40;32.00;;;;;;5050162;28;20029;-74
2023/03/18 09:04:24;;;;;;;8.48;2.78;;;16.60;32.10;;;;;;5049937;28;20025;-75
2023/03/18 09:06:50;;;;;;;8.77;3.53;;;16.80;32.20;;;;;;5049626;28;20032;-75
2023/03/18 09:09:16;;;;;;;11.73;6.38;;;16.70;32.30;;;;;;5049351;28;20028;-75
2023/03/18 09:11:42;;;;;;;14.18;8.85;;;16.70;31.60;;;;;;5049480;28;20045;-75
2023/03/18 09:14:07;;;;;;;8.25;3.30;;;16.60;31.90;;;;;;5049364;28;20025;-74
2023/03/18 09:16:34;;;;;;;6.53;3.38;;;16.80;31.10;;;;;;5047923;28;20044;-74
2023/03/18 09:19:00;;;;;;;9.95;5.20;;;16.90;31.90;;;;;;5049166;28;20044;-75
2023/03/18 09:21:26;;;;;;;9.80;4.50;;;17.40;31.80;;;;;;5047948;28;20037;-74
2023/03/18 09:23:51;;;;;;;6.80;3.40;;;17.00;31.50;;;;;;5049256;28;20076;-75
2023/03/18 09:26:18;;;;;;;9.60;3.42;;;17.10;30.00;;;;;;5047997;28;20766;-74
2023/03/18 09:28:44;;;;;;;7.18;2.83;;;17.10;31.10;;;;;;5049047;28;20020;-75
2023/03/18 09:31:10;;;;;;;7.68;3.63;;;17.00;29.60;;;;;;5047590;28;20036;-75
2023/03/18 09:33:36;;;;;;;5.63;2.25;;;17.20;30.30;;;;;;5047713;28;20032;-75
2023/03/18 09:36:03;;;;;;;7.03;4.70;;;17.30;29.40;;;;;;5047613;28;20037;-75
2023/03/18 09:38:29;;;;;;;7.18;2.50;;;17.40;29.70;;;;;;5048321;28;20021;-75
2023/03/18 09:41:09;;;;;;;8.02;3.75;;;17.30;29.20;;;;;;5049061;28;20086;-75
2023/03/18 09:43:43;;;;;;;8.57;3.47;;;17.20;29.60;;;;;;5048890;28;20037;-75
2023/03/18 09:46:43;;;;;;;4.63;2.60;;;16.90;30.40;;;;;;5048860;28;20017;-75
2023/03/18 09:49:25;;;;;;;6.03;2.20;;;17.50;30.10;;;;;;5047282;28;20033;-75
2023/03/18 09:52:03;;;;;;;6.28;1.92;;;18.20;29.60;;;;;;5048815;28;20482;-74
2023/03/18 09:54:44;;;;;;;5.60;2.53;;;18.60;28.90;;;;;;5048643;28;20033;-74
2023/03/18 09:57:21;;;;;;;5.47;2.45;;;19.00;28.30;;;;;;5047191;28;20484;-75
2023/03/18 09:59:57;;;;;;;8.68;3.72;;;19.30;28.30;;;;;;5047149;28;20040;-74
2023/03/18 10:02:35;;;;;;;4.78;2.63;;;19.70;28.20;;;;;;5047304;28;20509;-75
2023/03/18 10:05:06;;;;;;;5.32;2.47;;;19.90;27.40;;;;;;5048580;28;20500;-75
2023/03/18 10:07:40;;;;;;;4.40;3.00;;;19.60;27.30;;;;;;5046942;28;20060;-74
2023/03/18 10:10:10;;;;;;;16.45;8.77;;;18.60;27.80;;;;;;5047093;28;20048;-75
2023/03/18 10:12:41;;;;;;;6.47;3.22;;;18.20;29.00;;;;;;5047066;28;20116;-75
2023/03/18 10:15:16;;;;;;;5.72;3.30;;;17.90;29.20;;;;;;5048334;28;20032;-74
2023/03/18 10:18:03;;;;;;;7.25;3.42;;;17.60;29.60;;;;;;5047106;28;20044;-74
2023/03/18 10:20:51;;;;;;;5.43;2.97;;;17.90;29.50;;;;;;5047073;28;20029;-73
2023/03/18 10:23:35;;;;;;;6.90;2.88;;;18.20;29.40;;;;;;5048281;28;20071;-75
2023/03/18 10:26:12;;;;;;;6.40;2.85;;;18.10;29.00;;;;;;5046908;28;20063;-75
2023/03/18 10:29:04;;;;;;;6.30;2.78;;;17.90;29.30;;;;;;5048032;28;20033;-75
2023/03/18 10:31:45;;;;;;;6.22;2.35;;;18.40;29.40;;;;;;5047299;28;20053;-75
2023/03/18 10:34:17;;;;;;;6.22;2.50;;;18.10;28.40;;;;;;5046871;28;20025;-75
2023/03/18 10:37:09;;;;;;;6.05;3.13;;;17.90;29.50;;;;;;5046589;28;20108;-75
2023/03/18 10:39:36;;;;;;;5.22;2.92;;;18.00;30.30;;;;;;5046831;28;20036;-75
2023/03/18 10:42:25;;;;;;;7.22;3.33;;;17.20;29.90;;;;;;5046886;28;20151;-74
2023/03/18 10:44:52;;;;;;;6.90;3.42;;;16.30;30.70;;;;;;5047588;28;20051;-73
2023/03/18 10:47:23;;;;;;;7.40;2.90;;;14.90;32.40;;;;;;5048058;28;20033;-74
2023/03/18 10:50:12;;;;;;;6.68;3.50;;;14.30;33.80;;;;;;5047999;28;20033;-74
2023/03/18 10:52:48;;;;;;;6.30;2.75;;;13.90;31.10;;;;;;5052246;28;20446;-75
2023/03/18 10:55:21;;;;;;;11.55;4.55;;;13.40;32.10;;;;;;5052255;28;20032;-74
2023/03/18 10:57:47;;;;;;;9.88;4.20;;;13.10;36.90;;;;;;5050502;28;20029;-74
2023/03/18 11:00:16;;;;;;;;;;;12.70;37.20;;;;;;5051223;28;20036;-74
2023/03/18 11:02:43;;;;;;;8.20;3.83;;;12.40;38.10;;;;;;5051887;28;19932;-74
2023/03/18 11:05:12;;;;;;;;;;;12.40;37.80;;;;;;5050958;28;20187;-73
2023/03/18 11:08:05;;;;;;;10.10;3.03;;;12.50;37.00;;;;;;5051698;28;19905;-74
2023/03/18 11:10:38;;;;;;;6.82;3.45;;;12.50;36.80;;;;;;5050402;28;20044;-73
2023/03/18 11:13:05;;;;;;;9.30;4.32;;;12.30;36.80;;;;;;5051598;28;20029;-72
2023/03/18 11:15:45;;;;;;;5.63;3.20;;;12.30;38.10;;;;;;5050368;28;20039;-76
2023/03/18 11:18:15;;;;;;;7.45;3.80;;;12.20;35.50;;;;;;5050001;28;20036;-74
2023/03/18 11:20:46;;;;;;;6.22;3.35;;;12.20;37.90;;;;;;5050282;28;20035;-74
2023/03/18 11:23:47;;;;;;;5.35;3.15;;;12.00;36.70;;;;;;5051389;28;20099;-74
2023/03/18 11:26:24;;;;;;;6.55;3.50;;;12.10;38.20;;;;;;5051534;28;20078;-74
2023/03/18 11:28:58;;;;;;;9.50;4.60;;;12.30;38.70;;;;;;5051117;28;20553;-75
2023/03/18 11:31:24;;;;;;;6.82;4.32;;;12.40;40.10;;;;;;5049954;28;20036;-74
2023/03/18 11:33:55;;;;;;;;;;;12.50;41.00;;;;;;5050669;28;20025;-74
2023/03/18 11:36:23;;;;;;;7.97;4.63;;;12.40;40.30;;;;;;5051384;28;19909;-74
2023/03/18 11:38:56;;;;;;;9.02;4.78;;;12.50;40.20;;;;;;5049818;28;20078;-77
2023/03/18 11:41:24;;;;;;;9.18;4.38;;;12.30;40.80;;;;;;5050949;28;20171;-74
2023/03/18 11:44:14;;;;;;;9.20;4.63;;;12.20;42.20;;;;;;5049918;28;20056;-74
2023/03/18 11:46:52;;;;;;;5.95;3.78;;;12.00;43.00;;;;;;5051056;28;20025;-73
2023/03/18 11:49:22;;;;;;;7.55;4.25;;;12.00;43.30;;;;;;5049439;28;20047;-75
2023/03/18 11:52:18;;;;;;;6.30;3.30;;;12.20;43.80;;;;;;5050949;28;20028;-75
2023/03/18 11:54:44;;;;;;;9.23;4.75;;;12.40;44.00;;;;;;5051335;28;20059;-74
2023/03/18 11:57:35;;;;;;;9.77;4.82;;;12.50;43.90;;;;;;5050791;28;20032;-74
2023/03/18 12:00:25;;;;;;;8.70;4.55;;;12.60;43.90;;;;;;5049430;28;20036;-75
2023/03/18 12:02:55;;;;;;;8.13;4.28;;;12.40;43.60;;;;;;5048943;28;20029;-74
2023/03/18 12:05:40;;;;;;;11.48;4.53;;;12.40;44.50;;;;;;5050793;28;20501;-75
2023/03/18 12:08:37;;;;;;;7.78;4.35;;;12.40;44.70;;;;;;5050782;28;20104;-74
2023/03/18 12:11:06;;;;;;;9.57;4.50;;;12.20;44.10;;;;;;5049789;28;20052;-75
2023/03/18 12:14:04;;;;;;;9.05;4.35;;;12.10;45.30;;;;;;5050716;28;20083;-74
2023/03/18 12:16:44;;;;;;;10.45;5.68;;;12.20;45.80;;;;;;5050771;28;20131;-75
2023/03/18 12:19:47;;;;;;;10.23;5.07;;;12.10;45.00;;;;;;5049223;28;20029;-74
2023/03/18 12:22:41;;;;;;;7.97;4.30;;;12.10;46.40;;;;;;5049056;28;20353;-75
2023/03/18 12:25:29;;;;;;;7.13;3.75;;;12.20;46.50;;;;;;5050411;28;20087;-74
2023/03/18 12:27:59;;;;;;;6.50;3.53;;;12.40;46.30;;;;;;5049147;28;20148;-73
2023/03/18 12:30:59;;;;;;;5.70;2.97;;;12.50;45.60;;;;;;5048742;28;20157;-75
2023/03/18 12:33:47;;;;;;;7.72;4.20;;;12.70;45.00;;;;;;5050282;28;20033;-74
2023/03/18 12:36:38;;;;;;;11.20;4.05;;;12.80;45.20;;;;;;5050418;28;20071;-74
2023/03/18 12:39:27;;;;;;;8.15;4.00;;;12.70;44.80;;;;;;5048675;28;20509;-73
2023/03/18 12:42:13;;;;;;;7.72;3.83;;;12.60;45.50;;;;;;5044807;28;20036;-74
2023/03/18 12:44:56;;;;;;;9.10;5.23;;;12.60;45.60;;;;;;5048857;28;20033;-73
2023/03/18 12:47:49;;;;;;;7.47;4.43;;;12.50;46.00;;;;;;5048492;28;20036;-74
2023/03/18 12:50:18;;;;;;;8.55;4.00;;;12.30;46.50;;;;;;5049510;28;20037;-75
2023/03/18 12:52:48;;;;;;;9.65;4.15;;;12.20;47.00;;;;;;5048578;28;20413;-74
2023/03/18 12:55:34;;;;;;;9.05;4.40;;;12.30;46.60;;;;;;5049689;28;20029;-74
2023/03/18 12:58:09;;;;;;;8.23;3.67;;;12.20;46.60;;;;;;5049771;28;20079;-75
2023/03/18 13:01:09;;;;;;;8.05;3.90;;;12.20;46.80;;;;;;5048461;28;20029;-74
2023/03/18 13:03:39;;;;;;;7.72;3.53;;;12.30;46.70;;;;;;5049151;28;20048;-74
2023/03/18 13:06:10;;;;;;;5.65;3.67;;;12.60;47.10;;;;;;5048335;28;20031;-74
2023/03/18 13:08:54;;;;;;;9.13;4.57;;;12.60;46.80;;;;;;5049611;28;20032;-74
2023/03/18 13:11:38;;;;;;;7.63;3.70;;;12.60;47.40;;;;;;5048210;28;20045;-74
2023/03/18 13:14:35;;;;;;;5.80;3.45;;;12.60;47.30;;;;;;5048751;28;20029;-74
2023/03/18 13:17:03;;;;;;;6.55;3.95;;;12.70;47.10;;;;;;5048894;28;20033;-74
2023/03/18 13:19:30;;;;;;;6.32;3.70;;;12.70;47.10;;;;;;5047845;28;20120;-74
2023/03/18 13:22:24;;;;;;;7.38;4.15;;;12.60;47.60;;;;;;5048372;28;20037;-73